Time;durP1;ratioP1;P1;durP2;ratioP2;P2;SDS_P1;SDS_P2;PMS_P1;PMS_P2;Temp;Humidity;BMP_temperature;BMP_pressure;BME280_temperature;BME280_humidity;BME280_pressure;Samples;Min_cycle;Max_cycle;Signal;HPM_P1;HPM_P2
2021/03/28 00:02:08;;;;;;;63.50;6.95;;;;;;;;;;5061696;28;20137;-57
2021/03/28 00:04:44;;;;;;;58.95;6.57;;;;;;;;;;5061359;28;20488;-56
2021/03/28 00:07:10;;;;;;;62.45;6.45;;;;;;;;;;5065389;28;20036;-56
2021/03/28 00:09:37;;;;;;;64.63;6.90;;;;;;;;;;5063311;28;20079;-56
2021/03/28 00:12:05;;;;;;;47.90;6.32;;;;;;;;;;5065978;28;20071;-57
2021/03/28 00:14:37;;;;;;;59.72;5.93;;;;;;;;;;5067611;28;20511;-57
2021/03/28 00:17:21;;;;;;;53.55;6.28;;;;;;;;;;5069275;28;20036;-57
2021/03/28 00:19:52;;;;;;;69.63;7.32;;;;;;;;;;5055080;28;20441;-57
2021/03/28 00:22:30;;;;;;;45.78;6.97;;;;;;;;;;5065907;28;20574;-57
2021/03/28 00:25:00;;;;;;;59.20;6.45;;;;;;;;;;5070799;28;20076;-57
2021/03/28 00:27:28;;;;;;;56.25;6.80;;;;;;;;;;5067629;28;20045;-56
2021/03/28 00:30:03;;;;;;;65.22;7.28;;;;;;;;;;5066777;28;20037;-56
2021/03/28 00:32:40;;;;;;;63.08;8.80;;;;;;;;;;5070054;28;20114;-57
2021/03/28 00:35:08;;;;;;;66.88;7.32;;;;;;;;;;5070219;28;20055;-57
2021/03/28 00:37:35;;;;;;;66.60;7.93;;;;;;;;;;5063894;28;20051;-57
2021/03/28 00:40:13;;;;;;;74.00;7.78;;;;;;;;;;5065217;28;20045;-54
2021/03/28 00:42:39;;;;;;;;;;;;;;;;;;5066710;28;20072;-56
2021/03/28 00:45:24;;;;;;;57.00;7.03;;;;;;;;;;5063773;28;19932;-56
2021/03/28 00:48:03;;;;;;;60.67;6.75;;;;;;;;;;5067721;28;20051;-57
2021/03/28 00:50:37;;;;;;;52.72;7.25;;;;;;;;;;5063540;28;20094;-57
2021/03/28 00:53:06;;;;;;;54.08;6.60;;;;;;;;;;5059209;28;20114;-56
2021/03/28 00:56:00;;;;;;;60.28;6.97;;;;;;;;;;5054969;28;20044;-57
2021/03/28 00:58:42;;;;;;;55.17;6.97;;;;;;;;;;5065691;28;20076;-56
2021/03/28 01:01:25;;;;;;;58.80;8.32;;;;;;;;;;5060828;28;20076;-55
2021/03/28 01:04:10;;;;;;;86.82;8.43;;;;;;;;;;5064459;28;20048;-56
2021/03/28 01:06:40;;;;;;;64.53;8.48;;;;;;;;;;5061177;28;20087;-55
2021/03/28 01:09:13;;;;;;;75.07;7.88;;;;;;;;;;5066729;28;21580;-55
2021/03/28 01:12:04;;;;;;;66.97;8.05;;;;;;;;;;5066813;28;20049;-57
2021/03/28 01:14:48;;;;;;;58.22;7.80;;;;;;;;;;5063787;28;20072;-57
2021/03/28 01:17:19;;;;;;;59.20;8.00;;;;;;;;;;5066843;28;20041;-57
2021/03/28 01:19:58;;;;;;;61.95;8.43;;;;;;;;;;5059256;28;20045;-55
2021/03/28 01:22:24;;;;;;;;;;;;;;;;;;5058530;28;20078;-57
2021/03/28 01:24:50;;;;;;;75.93;8.25;;;;;;;;;;5063523;28;19924;-59
2021/03/28 01:27:24;;;;;;;60.90;8.02;;;;;;;;;;5065668;28;20123;-56
2021/03/28 01:29:55;;;;;;;63.53;8.65;;;;;;;;;;5066319;28;20056;-57
2021/03/28 01:32:27;;;;;;;82.78;9.38;;;;;;;;;;5063034;28;20049;-56
2021/03/28 01:34:58;;;;;;;59.17;8.50;;;;;;;;;;5063756;28;20098;-57
2021/03/28 01:37:24;;;;;;;64.43;8.75;;;;;;;;;;5065683;28;20137;-58
2021/03/28 01:40:11;;;;;;;71.47;8.45;;;;;;;;;;5067292;28;20076;-57
2021/03/28 01:42:56;;;;;;;72.90;9.05;;;;;;;;;;5062440;28;20037;-58
2021/03/28 01:45:44;;;;;;;63.17;8.80;;;;;;;;;;5051173;28;20103;-57
2021/03/28 01:48:10;;;;;;;66.00;9.60;;;;;;;;;;5060664;28;20135;-57
2021/03/28 01:50:39;;;;;;;60.38;9.38;;;;;;;;;;5063467;28;20043;-57
2021/03/28 01:53:08;;;;;;;66.03;8.65;;;;;;;;;;5058510;28;20090;-57
2021/03/28 01:55:35;;;;;;;70.85;9.20;;;;;;;;;;5060458;28;20095;-57
2021/03/28 01:58:24;;;;;;;67.50;10.20;;;;;;;;;;5062730;28;20028;-57
2021/03/28 02:00:50;;;;;;;70.55;10.45;;;;;;;;;;5061578;28;20134;-57
2021/03/28 02:03:16;;;;;;;88.10;9.95;;;;;;;;;;5061657;28;20048;-58
2021/03/28 02:05:58;;;;;;;74.88;10.65;;;;;;;;;;5063005;28;20051;-58
2021/03/28 02:08:27;;;;;;;53.83;7.80;;;;;;;;;;5063604;28;20040;-57
2021/03/28 02:11:03;;;;;;;50.55;8.98;;;;;;;;;;5063704;28;20098;-57
2021/03/28 02:13:39;;;;;;;85.78;10.10;;;;;;;;;;5059448;28;20094;-58
2021/03/28 02:16:26;;;;;;;61.03;8.70;;;;;;;;;;5060490;28;20102;-56
2021/03/28 02:18:57;;;;;;;53.58;9.20;;;;;;;;;;5069484;28;20056;-58
2021/03/28 02:21:26;;;;;;;69.07;10.02;;;;;;;;;;5064640;28;20094;-58
2021/03/28 02:24:08;;;;;;;66.93;9.40;;;;;;;;;;5061711;28;20133;-57
2021/03/28 02:26:39;;;;;;;60.10;8.60;;;;;;;;;;5068446;28;20496;-57
2021/03/28 02:29:28;;;;;;;60.67;8.85;;;;;;;;;;5058303;28;20048;-57
2021/03/28 02:31:57;;;;;;;62.97;8.67;;;;;;;;;;5062292;28;20143;-58
2021/03/28 02:34:50;;;;;;;57.78;8.60;;;;;;;;;;5061216;28;20041;-57
2021/03/28 02:37:39;;;;;;;61.30;8.57;;;;;;;;;;5041403;28;20063;-57
2021/03/28 02:40:38;;;;;;;57.67;9.13;;;;;;;;;;5060876;28;20497;-56
2021/03/28 02:43:10;;;;;;;37.20;6.87;;;;;;;;;;5036433;28;20400;-58
2021/03/28 02:45:41;;;;;;;56.47;7.85;;;;;;;;;;5058843;28;20044;-56
2021/03/28 02:48:18;;;;;;;56.38;7.72;;;;;;;;;;5060103;28;20102;-58
2021/03/28 02:50:51;;;;;;;61.38;7.40;;;;;;;;;;5060255;28;20045;-56
2021/03/28 02:53:27;;;;;;;59.08;8.70;;;;;;;;;;5046354;28;20095;-58
2021/03/28 02:56:05;;;;;;;56.95;7.65;;;;;;;;;;5062320;28;20491;-55
2021/03/28 02:58:31;;;;;;;40.90;6.45;;;;;;;;;;5067779;28;20064;-58
2021/03/28 03:00:57;;;;;;;59.58;7.07;;;;;;;;;;5066615;28;20044;-58
2021/03/28 03:03:34;;;;;;;43.22;7.50;;;;;;;;;;5066576;28;20044;-57
2021/03/28 03:06:04;;;;;;;39.15;7.07;;;;;;;;;;5061525;28;20063;-56
2021/03/28 03:08:39;;;;;;;45.45;7.55;;;;;;;;;;5064437;28;20120;-58
2021/03/28 03:11:23;;;;;;;47.45;6.10;;;;;;;;;;5064252;28;20139;-57
2021/03/28 03:14:12;;;;;;;45.35;7.82;;;;;;;;;;5062147;28;20086;-57
2021/03/28 03:17:07;;;;;;;42.33;6.97;;;;;;;;;;5068147;28;20163;-59
2021/03/28 03:19:37;;;;;;;46.42;7.22;;;;;;;;;;5059263;28;20489;-58
2021/03/28 03:22:09;;;;;;;46.53;5.97;;;;;;;;;;5067448;28;20055;-56
2021/03/28 03:24:53;;;;;;;37.53;5.32;;;;;;;;;;5059556;28;20044;-58
2021/03/28 03:27:20;;;;;;;37.47;5.30;;;;;;;;;;5049547;28;20053;-56
2021/03/28 03:29:57;;;;;;;51.40;6.35;;;;;;;;;;5041663;28;20103;-55
2021/03/28 03:32:56;;;;;;;32.13;5.47;;;;;;;;;;5044945;28;20128;-55
2021/03/28 03:35:25;;;;;;;33.53;5.50;;;;;;;;;;5021605;28;20493;-57
2021/03/28 03:37:57;;;;;;;42.35;4.72;;;;;;;;;;5043224;28;20572;-56
2021/03/28 03:40:23;;;;;;;45.88;5.97;;;;;;;;;;5027086;28;20115;-56
2021/03/28 03:42:58;;;;;;;38.72;5.50;;;;;;;;;;5046494;28;20052;-57
2021/03/28 03:45:34;;;;;;;32.40;5.05;;;;;;;;;;5043218;28;20065;-56
2021/03/28 03:48:10;;;;;;;42.10;4.75;;;;;;;;;;5042863;28;20029;-56
2021/03/28 03:50:52;;;;;;;27.00;5.20;;;;;;;;;;5039567;28;20063;-53
2021/03/28 03:53:18;;;;;;;33.17;4.45;;;;;;;;;;5046353;28;20040;-57
2021/03/28 03:56:11;;;;;;;28.88;4.43;;;;;;;;;;5041090;28;20037;-55
2021/03/28 03:58:41;;;;;;;40.67;5.10;;;;;;;;;;5029220;28;20441;-55
2021/03/28 04:01:14;;;;;;;26.67;5.03;;;;;;;;;;5045838;28;20069;-54
2021/03/28 04:03:53;;;;;;;37.78;5.30;;;;;;;;;;5045540;28;20037;-57
2021/03/28 04:06:40;;;;;;;33.35;5.15;;;;;;;;;;5044251;28;20701;-56
2021/03/28 04:09:20;;;;;;;31.08;4.50;;;;;;;;;;5046682;28;20040;-56
2021/03/28 04:12:08;;;;;;;25.95;4.95;;;;;;;;;;5048428;28;20036;-57
2021/03/28 04:14:35;;;;;;;;;;;;;;;;;;5049298;28;20051;-56
2021/03/28 04:17:05;;;;;;;22.95;4.72;;;;;;;;;;5043115;28;19960;-58
2021/03/28 04:19:31;;;;;;;28.48;4.55;;;;;;;;;;5036673;28;20041;-57
2021/03/28 04:22:00;;;;;;;27.67;4.63;;;;;;;;;;5046548;28;20537;-58
2021/03/28 04:24:30;;;;;;;41.47;4.78;;;;;;;;;;5042882;28;20048;-53
2021/03/28 04:27:05;;;;;;;19.23;4.63;;;;;;;;;;5051164;28;20558;-58
2021/03/28 04:29:31;;;;;;;25.67;4.82;;;;;;;;;;5065519;28;20500;-58
2021/03/28 04:31:57;;;;;;;25.67;4.65;;;;;;;;;;5063024;28;20029;-57
2021/03/28 04:34:26;;;;;;;37.45;5.00;;;;;;;;;;5065227;28;20120;-57
2021/03/28 04:37:17;;;;;;;24.38;4.22;;;;;;;;;;5066208;28;20094;-56
2021/03/28 04:39:49;;;;;;;31.83;4.50;;;;;;;;;;5065419;28;20562;-56
2021/03/28 04:42:34;;;;;;;33.60;4.63;;;;;;;;;;5067935;28;20033;-56
2021/03/28 04:45:06;;;;;;;22.33;4.40;;;;;;;;;;5067094;28;20148;-57
2021/03/28 04:47:53;;;;;;;26.65;4.82;;;;;;;;;;5061989;28;20550;-56
2021/03/28 04:50:22;;;;;;;23.48;3.90;;;;;;;;;;5062583;28;20044;-57
2021/03/28 04:52:49;;;;;;;29.30;5.35;;;;;;;;;;5067288;28;20082;-57
2021/03/28 04:55:34;;;;;;;25.58;4.68;;;;;;;;;;5065078;28;20058;-58
2021/03/28 04:58:01;;;;;;;34.63;5.28;;;;;;;;;;5066446;28;20514;-57
2021/03/28 05:00:27;;;;;;;18.10;3.75;;;;;;;;;;5061928;28;20037;-58
2021/03/28 05:03:06;;;;;;;42.65;5.28;;;;;;;;;;5061212;28;20055;-57
2021/03/28 05:05:48;;;;;;;21.27;4.55;;;;;;;;;;5065466;28;20139;-57
2021/03/28 05:08:28;;;;;;;24.80;4.88;;;;;;;;;;5059592;28;20045;-58
2021/03/28 05:10:55;;;;;;;17.60;4.22;;;;;;;;;;5059713;28;20056;-57
2021/03/28 05:13:21;;;;;;;26.40;4.40;;;;;;;;;;5060029;28;20045;-58
2021/03/28 05:16:02;;;;;;;28.20;5.28;;;;;;;;;;5064340;28;20041;-58
2021/03/28 05:18:34;;;;;;;27.80;4.28;;;;;;;;;;5069377;28;20072;-58
2021/03/28 05:21:10;;;;;;;28.50;5.20;;;;;;;;;;5066220;28;20465;-58
2021/03/28 05:23:55;;;;;;;33.35;5.15;;;;;;;;;;5069084;28;20045;-55
2021/03/28 05:26:32;;;;;;;22.73;4.93;;;;;;;;;;5067667;28;20488;-57
2021/03/28 05:29:17;;;;;;;24.60;5.05;;;;;;;;;;5060905;28;20119;-55
2021/03/28 05:32:06;;;;;;;28.30;4.72;;;;;;;;;;5059534;28;20519;-57
2021/03/28 05:34:32;;;;;;;;;;;;;;;;;;5054403;28;20124;-57
2021/03/28 05:37:16;;;;;;;27.20;4.63;;;;;;;;;;5064766;28;19920;-57
2021/03/28 05:40:02;;;;;;;18.52;4.20;;;;;;;;;;5062948;28;20121;-56
2021/03/28 05:42:46;;;;;;;20.73;4.15;;;;;;;;;;5067803;28;20113;-56
2021/03/28 05:45:16;;;;;;;29.52;4.97;;;;;;;;;;5062042;28;20048;-57
2021/03/28 05:48:04;;;;;;;27.50;5.07;;;;;;;;;;5068597;28;20512;-57
2021/03/28 05:50:39;;;;;;;19.48;4.65;;;;;;;;;;5064449;28;20511;-56
2021/03/28 05:53:31;;;;;;;27.38;5.32;;;;;;;;;;5063575;28;20581;-56
2021/03/28 05:56:09;;;;;;;26.77;5.10;;;;;;;;;;5058999;28;20049;-54
2021/03/28 05:58:35;;;;;;;;;;;;;;;;;;5068221;28;20389;-56
2021/03/28 06:01:21;;;;;;;18.63;4.25;;;;;;;;;;5064228;28;19925;-56
2021/03/28 06:03:53;;;;;;;25.00;4.50;;;;;;;;;;5065787;28;20037;-56
2021/03/28 06:06:33;;;;;;;17.30;4.28;;;;;;;;;;5066110;28;20044;-57
2021/03/28 06:08:59;;;;;;;23.83;5.05;;;;;;;;;;5061993;28;20049;-57
2021/03/28 06:11:41;;;;;;;21.27;5.30;;;;;;;;;;5059000;28;20040;-57
2021/03/28 06:14:21;;;;;;;20.25;4.20;;;;;;;;;;5067974;28;20041;-57
2021/03/28 06:16:59;;;;;;;21.05;4.78;;;;;;;;;;5066134;28;20040;-57
2021/03/28 06:19:26;;;;;;;22.73;4.20;;;;;;;;;;5064779;28;20064;-57
2021/03/28 06:22:21;;;;;;;16.25;4.53;;;;;;;;;;5066237;28;20071;-56
2021/03/28 06:25:06;;;;;;;17.90;4.65;;;;;;;;;;4992981;28;20047;-57
2021/03/28 06:27:51;;;;;;;20.40;4.45;;;;;;;;;;5065227;28;20503;-57
2021/03/28 06:30:21;;;;;;;15.68;3.80;;;;;;;;;;5066549;28;20044;-57
2021/03/28 06:32:47;;;;;;;23.80;3.65;;;;;;;;;;5060373;28;20072;-57
2021/03/28 06:35:16;;;;;;;24.23;4.05;;;;;;;;;;5047014;28;20064;-57
2021/03/28 06:37:43;;;;;;;27.50;3.90;;;;;;;;;;5065356;28;20094;-57
2021/03/28 06:40:16;;;;;;;13.10;4.05;;;;;;;;;;5063714;28;20048;-57
2021/03/28 06:42:45;;;;;;;27.67;4.32;;;;;;;;;;5067310;28;20101;-57
2021/03/28 06:45:25;;;;;;;17.15;3.83;;;;;;;;;;5063718;28;20057;-58
2021/03/28 06:48:13;;;;;;;31.77;4.75;;;;;;;;;;5065221;28;20041;-57
2021/03/28 06:50:58;;;;;;;20.40;3.90;;;;;;;;;;5063364;28;20052;-58
2021/03/28 06:53:49;;;;;;;16.02;3.60;;;;;;;;;;5067097;28;20074;-57
2021/03/28 06:56:16;;;;;;;12.85;3.33;;;;;;;;;;5065230;28;20089;-57
2021/03/28 06:58:45;;;;;;;11.02;3.35;;;;;;;;;;5057718;28;20040;-58
2021/03/28 07:01:21;;;;;;;17.77;3.85;;;;;;;;;;5062003;28;20086;-55
2021/03/28 07:04:04;;;;;;;17.55;4.53;;;;;;;;;;5059586;28;20123;-57
2021/03/28 07:06:44;;;;;;;17.90;4.43;;;;;;;;;;5067751;28;20049;-57
2021/03/28 07:09:29;;;;;;;23.50;3.97;;;;;;;;;;5063942;28;20179;-56
2021/03/28 07:12:04;;;;;;;17.45;3.90;;;;;;;;;;5065486;28;20044;-58
2021/03/28 07:14:46;;;;;;;16.30;3.63;;;;;;;;;;5065286;28;20102;-57
2021/03/28 07:17:48;;;;;;;20.40;3.15;;;;;;;;;;5065536;28;20044;-58
2021/03/28 07:20:30;;;;;;;15.88;3.15;;;;;;;;;;4962042;28;20051;-57
2021/03/28 07:23:09;;;;;;;21.90;3.63;;;;;;;;;;5055335;28;20082;-57
2021/03/28 07:25:38;;;;;;;20.58;3.90;;;;;;;;;;5066432;28;20040;-58
2021/03/28 07:28:21;;;;;;;22.13;4.90;;;;;;;;;;5058089;28;20127;-57
2021/03/28 07:31:07;;;;;;;20.00;3.45;;;;;;;;;;5062995;28;20051;-57
2021/03/28 07:33:48;;;;;;;18.85;3.63;;;;;;;;;;5059725;28;20045;-58
2021/03/28 07:36:24;;;;;;;18.17;3.00;;;;;;;;;;5057959;28;20095;-57
2021/03/28 07:39:09;;;;;;;17.17;3.58;;;;;;;;;;5066598;28;20128;-57
2021/03/28 07:41:54;;;;;;;19.40;3.97;;;;;;;;;;5062944;28;20045;-56
2021/03/28 07:44:39;;;;;;;21.40;3.92;;;;;;;;;;5056894;28;20962;-58
2021/03/28 07:47:18;;;;;;;21.63;3.97;;;;;;;;;;5065850;28;20098;-58
2021/03/28 07:49:59;;;;;;;26.83;4.13;;;;;;;;;;5046710;28;20094;-58
2021/03/28 07:52:26;;;;;;;22.58;3.85;;;;;;;;;;5067717;28;20049;-58
2021/03/28 07:55:12;;;;;;;21.40;3.58;;;;;;;;;;5063000;28;20064;-57
2021/03/28 07:57:57;;;;;;;19.63;3.47;;;;;;;;;;5063492;28;20511;-58
2021/03/28 08:00:36;;;;;;;18.02;4.32;;;;;;;;;;5069582;28;20045;-57
2021/03/28 08:03:15;;;;;;;26.02;5.20;;;;;;;;;;5066148;28;20492;-57
2021/03/28 08:06:05;;;;;;;27.70;4.40;;;;;;;;;;5068402;28;20041;-58
2021/03/28 08:08:50;;;;;;;32.53;3.97;;;;;;;;;;5068767;28;20118;-56
2021/03/28 08:11:16;;;;;;;32.88;4.68;;;;;;;;;;5068517;28;20520;-56
2021/03/28 08:14:01;;;;;;;33.25;5.25;;;;;;;;;;5064545;28;20123;-56
2021/03/28 08:16:27;;;;;;;23.33;3.80;;;;;;;;;;5067487;28;20040;-57
2021/03/28 08:19:02;;;;;;;19.85;3.42;;;;;;;;;;5060034;28;20071;-58
2021/03/28 08:21:38;;;;;;;26.10;4.20;;;;;;;;;;5063834;28;20041;-57
2021/03/28 08:24:22;;;;;;;25.08;4.32;;;;;;;;;;5065281;28;20575;-57
2021/03/28 08:27:27;;;;;;;28.50;4.13;;;;;;;;;;5057319;28;20132;-57
2021/03/28 08:30:29;;;;;;;24.60;3.55;;;;;;;;;;5062157;28;20048;-56
2021/03/28 08:33:13;;;;;;;15.75;3.60;;;;;;;;;;4984918;28;20050;-58
2021/03/28 08:35:58;;;;;;;21.08;3.78;;;;;;;;;;5056093;28;20048;-58
2021/03/28 08:38:28;;;;;;;26.88;3.58;;;;;;;;;;5067109;28;20074;-58
2021/03/28 08:40:57;;;;;;;24.52;3.55;;;;;;;;;;5068138;28;20072;-58
2021/03/28 08:43:29;;;;;;;20.85;3.08;;;;;;;;;;5060073;28;20041;-58
2021/03/28 08:46:02;;;;;;;20.95;3.50;;;;;;;;;;5064882;28;20059;-58
2021/03/28 08:48:37;;;;;;;23.55;3.17;;;;;;;;;;5071747;28;20366;-58
2021/03/28 08:51:07;;;;;;;20.63;3.80;;;;;;;;;;5064066;28;20079;-58
2021/03/28 08:53:35;;;;;;;19.00;2.80;;;;;;;;;;5063459;28;20059;-58
2021/03/28 08:56:13;;;;;;;26.38;3.90;;;;;;;;;;5065379;28;20037;-58
2021/03/28 08:58:40;;;;;;;28.75;3.10;;;;;;;;;;5072467;28;20056;-58
2021/03/28 09:01:14;;;;;;;25.83;4.57;;;;;;;;;;5070313;28;20033;-58
2021/03/28 09:03:54;;;;;;;17.08;2.60;;;;;;;;;;5058853;28;20063;-58
2021/03/28 09:06:26;;;;;;;22.67;3.42;;;;;;;;;;5060937;28;20075;-58
2021/03/28 09:09:01;;;;;;;15.82;3.17;;;;;;;;;;5062633;28;20048;-59
2021/03/28 09:11:46;;;;;;;16.55;2.95;;;;;;;;;;5065378;28;20040;-58
2021/03/28 09:14:25;;;;;;;18.13;2.97;;;;;;;;;;5065384;28;20052;-58
2021/03/28 09:17:03;;;;;;;24.00;3.90;;;;;;;;;;5058641;28;20045;-56
2021/03/28 09:19:29;;;;;;;;;;;;;;;;;;5056716;28;20143;-59
2021/03/28 09:22:03;;;;;;;31.98;4.38;;;;;;;;;;5061023;28;19963;-59
2021/03/28 09:24:29;;;;;;;33.63;4.55;;;;;;;;;;5065989;28;20135;-58
2021/03/28 09:26:58;;;;;;;18.27;3.25;;;;;;;;;;5067489;28;20056;-58
2021/03/28 09:29:34;;;;;;;23.45;3.83;;;;;;;;;;5061225;28;20136;-58
2021/03/28 09:32:06;;;;;;;33.20;4.03;;;;;;;;;;5063203;28;20619;-58
2021/03/28 09:34:41;;;;;;;18.10;3.47;;;;;;;;;;5064336;28;20438;-58
2021/03/28 09:37:11;;;;;;;22.60;3.78;;;;;;;;;;5047734;28;20571;-57
2021/03/28 09:39:40;;;;;;;18.15;3.55;;;;;;;;;;5065385;28;20055;-59
2021/03/28 09:42:06;;;;;;;22.50;3.65;;;;;;;;;;5063302;28;20092;-59
2021/03/28 09:44:39;;;;;;;30.38;4.40;;;;;;;;;;5066347;28;20132;-59
2021/03/28 09:47:29;;;;;;;18.15;3.58;;;;;;;;;;5059501;28;20116;-58
2021/03/28 09:49:58;;;;;;;26.80;3.90;;;;;;;;;;5065410;28;20552;-59
2021/03/28 09:52:24;;;;;;;23.55;3.65;;;;;;;;;;5062283;28;20191;-59
2021/03/28 09:55:09;;;;;;;24.40;3.88;;;;;;;;;;5060527;28;20052;-59
2021/03/28 09:57:42;;;;;;;17.75;3.47;;;;;;;;;;5059854;28;20538;-59
2021/03/28 10:00:25;;;;;;;21.50;3.88;;;;;;;;;;5061902;28;20052;-59
2021/03/28 10:02:51;;;;;;;18.60;3.60;;;;;;;;;;5067191;28;20540;-59
2021/03/28 10:05:19;;;;;;;19.95;3.97;;;;;;;;;;5061804;28;20040;-59
2021/03/28 10:07:48;;;;;;;24.80;3.83;;;;;;;;;;5064514;28;20099;-59
2021/03/28 10:10:28;;;;;;;22.40;3.47;;;;;;;;;;5055920;28;20131;-58
2021/03/28 10:12:55;;;;;;;21.70;3.22;;;;;;;;;;5063637;28;20726;-59
2021/03/28 10:15:25;;;;;;;19.20;3.75;;;;;;;;;;5062862;28;20037;-59
2021/03/28 10:18:10;;;;;;;13.85;3.65;;;;;;;;;;5065930;28;20060;-59
2021/03/28 10:20:36;;;;;;;20.20;3.28;;;;;;;;;;5063961;28;20044;-59
2021/03/28 10:23:03;;;;;;;27.05;4.30;;;;;;;;;;5061105;28;20079;-59
2021/03/28 10:25:48;;;;;;;16.42;3.05;;;;;;;;;;5066286;28;20048;-59
2021/03/28 10:28:33;;;;;;;16.75;3.60;;;;;;;;;;5063986;28;20049;-59
2021/03/28 10:31:08;;;;;;;24.33;4.00;;;;;;;;;;5068386;28;20041;-59
2021/03/28 10:33:40;;;;;;;18.25;3.63;;;;;;;;;;5058352;28;20052;-59
2021/03/28 10:36:10;;;;;;;21.95;3.78;;;;;;;;;;5059059;28;20080;-59
2021/03/28 10:38:52;;;;;;;25.60;3.78;;;;;;;;;;5065700;28;20048;-59
2021/03/28 10:41:37;;;;;;;22.80;3.67;;;;;;;;;;5061062;28;20497;-59
2021/03/28 10:44:10;;;;;;;20.48;3.85;;;;;;;;;;5064100;28;20119;-59
2021/03/28 10:46:36;;;;;;;20.30;4.03;;;;;;;;;;5062735;28;20163;-59
2021/03/28 10:49:02;;;;;;;21.70;4.95;;;;;;;;;;5063794;28;20044;-59
2021/03/28 10:51:48;;;;;;;22.25;3.60;;;;;;;;;;5061267;28;20051;-59
2021/03/28 10:54:14;;;;;;;23.63;3.83;;;;;;;;;;5063951;28;20123;-59
2021/03/28 10:56:41;;;;;;;20.10;3.97;;;;;;;;;;5067380;28;20071;-59
2021/03/28 10:59:17;;;;;;;18.30;3.83;;;;;;;;;;5067153;28;20033;-59
2021/03/28 11:01:59;;;;;;;20.80;3.85;;;;;;;;;;5063253;28;20044;-59
2021/03/28 11:04:46;;;;;;;26.83;4.85;;;;;;;;;;5063681;28;20049;-59
2021/03/28 11:07:25;;;;;;;23.42;3.63;;;;;;;;;;5066681;28;20048;-59
2021/03/28 11:09:51;;;;;;;36.80;5.40;;;;;;;;;;5065244;28;20040;-59
2021/03/28 11:12:20;;;;;;;19.50;4.55;;;;;;;;;;5063814;28;20647;-59
2021/03/28 11:14:53;;;;;;;17.75;3.72;;;;;;;;;;5063941;28;20080;-59
2021/03/28 11:17:31;;;;;;;23.05;4.53;;;;;;;;;;5057536;28;20397;-59
2021/03/28 11:20:18;;;;;;;16.67;4.30;;;;;;;;;;5060861;28;20053;-59
2021/03/28 11:23:05;;;;;;;21.38;3.70;;;;;;;;;;5062779;28;20102;-59
2021/03/28 11:25:31;;;;;;;26.70;3.42;;;;;;;;;;5063513;28;20488;-59
2021/03/28 11:28:01;;;;;;;21.92;4.40;;;;;;;;;;5055696;28;20045;-59
2021/03/28 11:30:33;;;;;;;26.65;4.88;;;;;;;;;;5061324;28;20044;-59
2021/03/28 11:33:20;;;;;;;30.35;4.75;;;;;;;;;;5065952;28;20044;-59
2021/03/28 11:35:46;;;;;;;28.00;4.78;;;;;;;;;;5065283;28;20045;-59
2021/03/28 11:38:15;;;;;;;15.95;4.28;;;;;;;;;;5056997;28;20140;-59
2021/03/28 11:40:47;;;;;;;27.65;5.07;;;;;;;;;;5060769;28;20037;-59
2021/03/28 11:43:21;;;;;;;22.92;4.32;;;;;;;;;;5058517;28;20052;-59
2021/03/28 11:46:07;;;;;;;14.85;3.83;;;;;;;;;;5059993;28;20052;-60
2021/03/28 11:48:39;;;;;;;27.80;4.88;;;;;;;;;;5060640;28;20037;-59
2021/03/28 11:51:23;;;;;;;26.85;4.90;;;;;;;;;;5061319;28;20040;-59
2021/03/28 11:53:54;;;;;;;31.67;5.50;;;;;;;;;;5063105;28;20567;-59
2021/03/28 11:56:40;;;;;;;26.38;4.85;;;;;;;;;;5056842;28;20420;-59
2021/03/28 11:59:11;;;;;;;33.05;5.60;;;;;;;;;;5072554;28;20496;-59
2021/03/28 12:01:56;;;;;;;37.08;5.80;;;;;;;;;;5065601;28;20066;-59
2021/03/28 12:04:29;;;;;;;27.17;5.57;;;;;;;;;;5062359;28;20041;-59
2021/03/28 12:07:27;;;;;;;30.88;6.13;;;;;;;;;;5065658;28;20049;-59
2021/03/28 12:10:00;;;;;;;41.15;6.57;;;;;;;;;;5023258;28;20114;-59
2021/03/28 12:12:39;;;;;;;32.67;5.90;;;;;;;;;;5051881;28;20043;-59
2021/03/28 12:15:25;;;;;;;27.92;5.63;;;;;;;;;;5063412;28;20094;-59
2021/03/28 12:18:10;;;;;;;35.88;6.82;;;;;;;;;;5032461;28;20036;-59
2021/03/28 12:20:37;;;;;;;33.55;6.43;;;;;;;;;;5071382;28;20132;-59
2021/03/28 12:23:17;;;;;;;32.88;5.47;;;;;;;;;;5068707;28;20431;-59
2021/03/28 12:26:01;;;;;;;42.75;7.15;;;;;;;;;;5074114;28;20426;-59
2021/03/28 12:28:51;;;;;;;43.65;7.28;;;;;;;;;;5071773;28;20044;-59
2021/03/28 12:31:37;;;;;;;35.25;6.10;;;;;;;;;;5023602;28;20047;-59
2021/03/28 12:34:19;;;;;;;39.53;7.22;;;;;;;;;;5067595;28;20067;-59
2021/03/28 12:36:45;;;;;;;36.45;6.25;;;;;;;;;;5070083;28;20048;-59
2021/03/28 12:39:13;;;;;;;45.50;7.57;;;;;;;;;;5074075;28;20051;-59
2021/03/28 12:41:39;;;;;;;;;;;;;;;;;;5067926;28;20041;-59
2021/03/28 12:44:05;;;;;;;43.40;7.35;;;;;;;;;;5065003;28;20056;-59
2021/03/28 12:46:40;;;;;;;40.63;7.10;;;;;;;;;;5066321;28;20145;-59
2021/03/28 12:49:10;;;;;;;41.35;7.78;;;;;;;;;;5064002;28;20037;-59
2021/03/28 12:51:37;;;;;;;47.97;8.00;;;;;;;;;;5066022;28;20050;-59
2021/03/28 12:54:32;;;;;;;34.08;7.60;;;;;;;;;;5067686;28;20094;-59
2021/03/28 12:57:21;;;;;;;40.75;7.85;;;;;;;;;;4995964;28;20412;-59
2021/03/28 12:59:49;;;;;;;35.13;7.25;;;;;;;;;;5060010;28;20055;-59
2021/03/28 13:02:18;;;;;;;49.60;8.77;;;;;;;;;;5062373;28;20064;-59
2021/03/28 13:04:51;;;;;;;45.00;8.90;;;;;;;;;;5061203;28;20393;-59
2021/03/28 13:07:33;;;;;;;52.45;9.52;;;;;;;;;;5067160;28;20131;-59
2021/03/28 13:10:00;;;;;;;52.67;9.77;;;;;;;;;;5058753;28;20072;-59
2021/03/28 13:12:28;;;;;;;45.25;8.38;;;;;;;;;;5063276;28;20068;-59
2021/03/28 13:15:09;;;;;;;50.83;10.43;;;;;;;;;;5065067;28;20036;-59
2021/03/28 13:17:37;;;;;;;39.72;9.13;;;;;;;;;;5062168;28;20083;-59
2021/03/28 13:20:25;;;;;;;54.13;9.38;;;;;;;;;;5069502;28;20059;-59
2021/03/28 13:22:52;;;;;;;41.60;8.63;;;;;;;;;;5066654;28;20049;-59
2021/03/28 13:25:18;;;;;;;49.28;9.27;;;;;;;;;;5063662;28;20094;-59
2021/03/28 13:28:00;;;;;;;39.60;10.30;;;;;;;;;;5070249;28;20049;-59
2021/03/28 13:30:32;;;;;;;46.92;9.10;;;;;;;;;;5066211;28;20055;-59
2021/03/28 13:32:58;;;;;;;35.08;9.20;;;;;;;;;;5064544;28;20041;-60
2021/03/28 13:35:35;;;;;;;52.65;10.70;;;;;;;;;;5068255;28;20488;-60
2021/03/28 13:38:20;;;;;;;58.45;11.45;;;;;;;;;;5065456;28;20044;-59
2021/03/28 13:40:49;;;;;;;38.13;10.13;;;;;;;;;;5066049;28;20629;-59
2021/03/28 13:43:20;;;;;;;54.47;11.57;;;;;;;;;;5064240;28;20571;-59
2021/03/28 13:45:47;;;;;;;46.63;11.98;;;;;;;;;;5060818;28;20045;-59
2021/03/28 13:48:16;;;;;;;43.70;12.23;;;;;;;;;;5062920;28;20131;-59
2021/03/28 13:50:44;;;;;;;42.97;12.27;;;;;;;;;;5065235;28;20040;-59
2021/03/28 13:53:19;;;;;;;46.90;11.32;;;;;;;;;;5066925;28;20043;-59
2021/03/28 13:55:48;;;;;;;33.78;11.52;;;;;;;;;;5064620;28;20573;-59
2021/03/28 13:58:17;;;;;;;42.50;12.32;;;;;;;;;;5060634;28;20552;-59
2021/03/28 14:00:45;;;;;;;32.50;10.52;;;;;;;;;;5063613;28;20050;-60
2021/03/28 14:03:14;;;;;;;36.50;10.02;;;;;;;;;;5065298;28;20048;-59
2021/03/28 14:05:41;;;;;;;41.10;11.52;;;;;;;;;;5061693;28;20049;-59
2021/03/28 14:08:11;;;;;;;36.65;10.00;;;;;;;;;;5065220;28;20119;-59
2021/03/28 14:10:38;;;;;;;32.33;10.90;;;;;;;;;;5059602;28;20068;-59
2021/03/28 14:13:18;;;;;;;34.42;9.65;;;;;;;;;;5065007;28;20542;-59
2021/03/28 14:16:00;;;;;;;30.35;9.15;;;;;;;;;;5063642;28;20044;-59
2021/03/28 14:18:37;;;;;;;37.13;11.00;;;;;;;;;;5061319;28;20095;-59
2021/03/28 14:21:36;;;;;;;40.10;10.70;;;;;;;;;;5056002;28;20139;-59
2021/03/28 14:24:05;;;;;;;46.05;10.40;;;;;;;;;;5016830;28;20080;-59
2021/03/28 14:26:35;;;;;;;34.97;10.43;;;;;;;;;;5052729;28;20083;-59
2021/03/28 14:29:23;;;;;;;40.05;11.18;;;;;;;;;;5063808;28;20028;-59
2021/03/28 14:31:58;;;;;;;35.17;11.13;;;;;;;;;;5062919;28;20097;-59
2021/03/28 14:34:24;;;;;;;32.95;9.13;;;;;;;;;;5065911;28;20032;-59
2021/03/28 14:36:50;;;;;;;31.17;10.65;;;;;;;;;;5059971;28;20142;-59
2021/03/28 14:39:43;;;;;;;28.90;9.68;;;;;;;;;;5061141;28;20041;-59
2021/03/28 14:42:12;;;;;;;29.42;11.93;;;;;;;;;;5064994;28;20120;-60
2021/03/28 14:44:45;;;;;;;29.65;9.93;;;;;;;;;;5062146;28;20081;-59
2021/03/28 14:47:30;;;;;;;27.80;9.75;;;;;;;;;;5060878;28;20083;-59
2021/03/28 14:50:01;;;;;;;34.72;9.98;;;;;;;;;;5059915;28;20049;-59
2021/03/28 14:52:37;;;;;;;26.50;10.10;;;;;;;;;;5064726;28;20443;-60
2021/03/28 14:55:16;;;;;;;33.13;10.60;;;;;;;;;;5062123;28;20045;-60
2021/03/28 14:58:06;;;;;;;26.50;8.68;;;;;;;;;;5063924;28;20037;-59
2021/03/28 15:00:37;;;;;;;31.50;9.52;;;;;;;;;;5036809;28;20079;-59
2021/03/28 15:03:22;;;;;;;24.40;8.55;;;;;;;;;;5062776;28;20144;-59
2021/03/28 15:06:06;;;;;;;31.60;10.10;;;;;;;;;;5060873;28;20045;-59
2021/03/28 15:08:39;;;;;;;28.30;9.52;;;;;;;;;;5054868;28;20505;-59
2021/03/28 15:11:18;;;;;;;31.13;9.43;;;;;;;;;;5067362;28;20041;-59
2021/03/28 15:13:53;;;;;;;24.42;8.27;;;;;;;;;;5061054;28;20276;-60
2021/03/28 15:16:25;;;;;;;27.90;8.55;;;;;;;;;;5061442;28;20044;-59
2021/03/28 15:18:56;;;;;;;27.30;9.35;;;;;;;;;;5063187;28;20049;-59
2021/03/28 15:21:31;;;;;;;25.80;8.40;;;;;;;;;;5060802;28;20046;-59
2021/03/28 15:24:12;;;;;;;26.85;9.02;;;;;;;;;;5066997;28;20166;-59